createdAt,value
2019-05-18T00:00:24.373Z,3484
2019-05-18T00:01:25.131Z,3484
2019-05-18T00:02:25.903Z,3484
2019-05-18T00:03:26.654Z,3484
2019-05-18T00:04:27.441Z,3484
2019-05-18T00:05:28.205Z,3484
2019-05-18T00:06:29.033Z,3484
2019-05-18T00:07:29.809Z,3484
2019-05-18T00:08:30.627Z,3484
2019-05-18T00:09:31.370Z,3484
2019-05-18T00:10:32.118Z,3484
2019-05-18T00:11:32.933Z,3464
2019-05-18T00:12:33.669Z,3484
2019-05-18T00:13:34.421Z,3484
2019-05-18T00:14:35.198Z,3464
2019-05-18T00:15:35.949Z,3464
2019-05-18T00:16:36.724Z,3464
2019-05-18T00:17:37.466Z,3464
2019-05-18T00:18:38.197Z,3464
2019-05-18T00:19:38.921Z,3464
2019-05-18T00:20:39.675Z,3464
2019-05-18T00:21:40.458Z,3464
2019-05-18T00:22:41.200Z,3464
2019-05-18T00:23:42.003Z,3464
2019-05-18T00:24:42.759Z,3464
2019-05-18T00:25:43.558Z,3464
2019-05-18T00:26:44.319Z,3464
2019-05-18T00:27:45.054Z,3464
2019-05-18T00:28:45.817Z,3464
2019-05-18T00:29:46.546Z,3464
2019-05-18T00:30:47.312Z,3464
2019-05-18T00:31:48.109Z,3464
2019-05-18T00:32:48.845Z,3464
2019-05-18T00:33:49.631Z,3464
2019-05-18T00:34:50.376Z,3464
2019-05-18T00:35:51.098Z,3464
2019-05-18T00:36:51.905Z,3464
2019-05-18T00:37:52.629Z,3464
2019-05-18T00:38:53.415Z,3464
2019-05-18T00:39:54.145Z,3464
2019-05-18T00:40:54.923Z,3464
2019-05-18T00:41:55.740Z,3464
2019-05-18T00:42:56.514Z,3464
2019-05-18T00:43:57.305Z,3464
2019-05-18T00:44:58.090Z,3464
2019-05-18T00:45:58.812Z,3464
2019-05-18T00:46:59.639Z,3464
2019-05-18T00:48:00.387Z,3464
2019-05-18T00:49:01.204Z,3464
2019-05-18T00:50:01.966Z,3464
2019-05-18T00:51:02.725Z,3464
2019-05-18T00:52:03.563Z,3464
2019-05-18T00:53:04.324Z,3464
2019-05-18T00:54:05.070Z,3464
2019-05-18T00:55:05.800Z,3464
2019-05-18T00:56:06.560Z,3444
2019-05-18T00:57:07.395Z,3444
2019-05-18T00:58:08.189Z,3444
2019-05-18T00:59:08.898Z,3444
2019-05-18T01:00:09.622Z,3444
2019-05-18T01:01:10.340Z,3444
2019-05-18T01:02:11.096Z,3444
2019-05-18T01:03:11.861Z,3444
2019-05-18T01:04:12.618Z,3444
2019-05-18T01:05:13.363Z,3444
2019-05-18T01:06:14.123Z,3444
2019-05-18T01:07:14.900Z,3444
2019-05-18T01:08:15.658Z,3444
2019-05-18T01:09:16.426Z,3444
2019-05-18T01:10:17.178Z,3444
2019-05-18T01:11:17.907Z,3444
2019-05-18T01:12:18.706Z,3444
2019-05-18T01:13:19.440Z,3444
2019-05-18T01:14:20.170Z,3444
2019-05-18T01:15:20.924Z,3444
2019-05-18T01:16:21.662Z,3444
2019-05-18T01:17:22.486Z,3444
2019-05-18T01:18:23.281Z,3444
2019-05-18T01:19:24.064Z,3444
2019-05-18T01:20:24.814Z,3444
2019-05-18T01:21:25.515Z,3444
2019-05-18T01:22:26.298Z,3444
2019-05-18T01:23:27.063Z,3444
2019-05-18T01:24:27.761Z,3444
2019-05-18T01:25:28.490Z,3444
2019-05-18T01:26:29.222Z,3444
2019-05-18T01:27:30.002Z,3444
2019-05-18T01:28:30.774Z,3444
2019-05-18T01:29:31.558Z,3444
2019-05-18T01:30:32.284Z,3444
2019-05-18T01:31:33.030Z,3444
2019-05-18T01:32:33.814Z,3444
2019-05-18T01:33:34.625Z,3444
2019-05-18T01:34:35.391Z,3444
2019-05-18T01:35:36.159Z,3444
2019-05-18T01:36:36.944Z,3444
2019-05-18T01:37:37.730Z,3444
2019-05-18T01:38:38.459Z,3424
2019-05-18T01:39:39.156Z,3424
2019-05-18T01:40:39.890Z,3424
2019-05-18T01:41:40.637Z,3424
2019-05-18T01:42:41.460Z,3424
2019-05-18T01:43:42.270Z,3424
2019-05-18T01:44:43.024Z,3424
2019-05-18T01:45:43.753Z,3424
2019-05-18T01:46:44.489Z,3424
2019-05-18T01:47:45.319Z,3424
2019-05-18T01:48:46.092Z,3424
2019-05-18T01:49:46.855Z,3424
2019-05-18T01:50:47.697Z,3424
2019-05-18T01:51:48.442Z,3424
2019-05-18T01:52:49.338Z,3424
2019-05-18T01:53:50.121Z,3424
2019-05-18T01:54:50.892Z,3424
2019-05-18T01:55:51.639Z,3424
2019-05-18T01:56:52.355Z,3424
2019-05-18T01:57:53.202Z,3424
2019-05-18T01:58:53.983Z,3424
2019-05-18T01:59:54.722Z,3424
2019-05-18T02:00:55.446Z,3424
2019-05-18T02:01:56.185Z,3424
2019-05-18T02:02:56.944Z,3424
2019-05-18T02:03:57.711Z,3424
2019-05-18T02:04:58.418Z,3424
2019-05-18T02:05:59.141Z,3424
2019-05-18T02:06:59.899Z,3424
2019-05-18T02:08:00.704Z,3424
2019-05-18T02:09:01.520Z,3424
2019-05-18T02:10:02.573Z,3424
2019-05-18T02:11:03.542Z,3424
2019-05-18T02:12:04.288Z,3424
2019-05-18T02:13:05.068Z,3424
2019-05-18T02:14:05.812Z,3424
2019-05-18T02:15:06.610Z,3424
2019-05-18T02:16:07.351Z,3424
2019-05-18T02:17:08.091Z,3404
2019-05-18T02:18:08.918Z,3404
2019-05-18T02:19:09.672Z,3404
2019-05-18T02:20:10.393Z,3404
2019-05-18T02:21:11.129Z,3404
2019-05-18T02:22:11.866Z,3404
2019-05-18T02:23:12.659Z,3404
2019-05-18T02:24:13.450Z,3404
2019-05-18T02:25:14.230Z,3404
2019-05-18T02:26:14.979Z,3404
2019-05-18T02:27:15.714Z,3404
2019-05-18T02:28:16.537Z,3404
2019-05-18T02:29:17.306Z,3404
2019-05-18T02:30:18.112Z,3404
2019-05-18T02:31:18.878Z,3404
2019-05-18T02:32:19.617Z,3404
2019-05-18T02:33:20.423Z,3404
2019-05-18T02:34:21.246Z,3404
2019-05-18T02:35:21.999Z,3404
2019-05-18T02:36:22.738Z,3404
2019-05-18T02:37:23.546Z,3404
2019-05-18T02:38:24.353Z,3404
2019-05-18T02:39:25.150Z,3404
2019-05-18T02:40:25.896Z,3404
2019-05-18T02:41:26.662Z,3404
2019-05-18T02:42:30.618Z,3404
2019-05-18T02:43:31.724Z,3404
2019-05-18T02:44:32.511Z,3404
2019-05-18T02:45:33.348Z,3404
2019-05-18T02:46:34.172Z,3404
2019-05-18T02:47:35.023Z,3404
2019-05-18T02:48:48.238Z,3404
2019-05-18T02:49:51.519Z,3404
2019-05-18T02:50:52.267Z,3404
2019-05-18T02:51:53.063Z,3404
2019-05-18T02:52:53.851Z,3404
2019-05-18T02:53:54.634Z,3404
2019-05-18T02:54:55.407Z,3404
2019-05-18T02:55:56.127Z,3404
2019-05-18T02:56:56.866Z,3404
2019-05-18T02:57:57.618Z,3404
2019-05-18T02:58:58.442Z,3404
2019-05-18T02:59:59.200Z,3404
2019-05-18T03:00:59.963Z,3404
2019-05-18T03:02:00.722Z,3404
2019-05-18T03:03:01.481Z,3404
2019-05-18T03:04:02.351Z,3404
2019-05-18T03:05:03.182Z,3404
2019-05-18T03:06:03.923Z,3404
2019-05-18T03:07:04.649Z,3384
2019-05-18T03:08:05.443Z,3384
2019-05-18T03:09:06.270Z,3384
2019-05-18T03:10:07.015Z,3384
2019-05-18T03:11:07.792Z,3384
2019-05-18T03:12:08.557Z,3384
2019-05-18T03:13:09.294Z,3384
2019-05-18T03:14:10.139Z,3384
2019-05-18T03:15:10.868Z,3384
2019-05-18T03:16:11.612Z,3384
2019-05-18T03:17:12.334Z,3384
2019-05-18T03:18:13.055Z,3384
2019-05-18T03:19:13.858Z,3384
2019-05-18T03:20:14.579Z,3384
2019-05-18T03:21:15.319Z,3384
2019-05-18T03:22:16.034Z,3384
2019-05-18T03:23:16.740Z,3384
2019-05-18T03:24:17.558Z,3384
2019-05-18T03:25:18.352Z,3384
2019-05-18T03:26:19.111Z,3384
2019-05-18T03:27:19.900Z,3384
2019-05-18T03:28:20.642Z,3384
2019-05-18T03:29:21.470Z,3384
2019-05-18T03:30:22.248Z,3384
2019-05-18T03:31:23.065Z,3384
2019-05-18T03:32:23.832Z,3384
2019-05-18T03:33:28.868Z,3384
2019-05-18T03:34:31.414Z,3384
2019-05-18T03:35:32.149Z,3384
2019-05-18T03:36:32.878Z,3384
2019-05-18T03:37:33.614Z,3384
2019-05-18T03:38:34.382Z,3384
2019-05-18T03:39:35.238Z,3384
2019-05-18T03:40:36.013Z,3384
2019-05-18T03:41:36.774Z,3384
2019-05-18T03:42:37.501Z,3384
2019-05-18T03:43:38.269Z,3384
2019-05-18T03:44:39.115Z,3384
2019-05-18T03:45:39.830Z,3384
2019-05-18T03:46:40.581Z,3384
2019-05-18T03:47:41.331Z,3384
2019-05-18T03:48:42.095Z,3384
2019-05-18T03:49:42.939Z,3384
2019-05-18T03:50:43.692Z,3384
2019-05-18T03:51:44.422Z,3384
2019-05-18T03:52:45.158Z,3384
2019-05-18T03:53:45.907Z,3384
2019-05-18T03:54:46.757Z,3384
2019-05-18T03:55:47.536Z,3384
2019-05-18T03:56:48.283Z,3384
2019-05-18T03:57:49.057Z,3384
2019-05-18T03:58:49.807Z,3384
2019-05-18T03:59:50.614Z,3384
2019-05-18T04:00:51.339Z,3384
2019-05-18T04:01:52.111Z,3384
2019-05-18T04:02:52.849Z,3384
2019-05-18T04:03:53.601Z,3384
2019-05-18T04:04:54.394Z,3384
2019-05-18T04:05:55.143Z,3384
2019-05-18T04:06:55.903Z,3384
2019-05-18T04:07:56.647Z,3384
2019-05-18T04:08:57.431Z,3364
2019-05-18T04:09:58.282Z,3384
2019-05-18T04:10:59.024Z,3384
2019-05-18T04:11:59.763Z,3364
2019-05-18T04:13:00.490Z,3364
2019-05-18T04:14:01.315Z,3364
2019-05-18T04:15:02.154Z,3364
2019-05-18T04:16:02.955Z,3364
2019-05-18T04:17:03.752Z,3364
2019-05-18T04:18:04.463Z,3364
2019-05-18T04:19:05.193Z,3364
2019-05-18T04:20:06.049Z,3364
2019-05-18T04:21:06.807Z,3364
2019-05-18T04:22:07.609Z,3364
2019-05-18T04:23:08.351Z,3364
2019-05-18T04:24:09.058Z,3364
2019-05-18T04:25:09.851Z,3364
2019-05-18T04:26:10.558Z,3364
2019-05-18T04:27:11.283Z,3364
2019-05-18T04:28:12.016Z,3364
2019-05-18T04:29:12.746Z,3364
2019-05-18T04:30:13.606Z,3364
2019-05-18T04:31:14.400Z,3364
2019-05-18T04:32:15.171Z,3364
2019-05-18T04:33:15.951Z,3364
2019-05-18T04:34:16.703Z,3364
2019-05-18T04:35:17.563Z,3364
2019-05-18T04:36:18.317Z,3364
2019-05-18T04:37:19.100Z,3364
2019-05-18T04:38:19.873Z,3364
2019-05-18T04:39:20.670Z,3364
2019-05-18T04:40:21.508Z,3364
2019-05-18T04:41:22.256Z,3364
2019-05-18T04:42:23.031Z,3364
2019-05-18T04:43:23.814Z,3364
2019-05-18T04:44:24.596Z,3364
2019-05-18T04:45:25.438Z,3364
2019-05-18T04:46:26.202Z,3364
2019-05-18T04:47:26.991Z,3364
2019-05-18T04:48:27.782Z,3364
2019-05-18T04:49:28.562Z,3364
2019-05-18T04:50:29.424Z,3364
2019-05-18T04:51:30.191Z,3364
2019-05-18T04:52:30.936Z,3364
2019-05-18T04:53:31.794Z,3364
2019-05-18T04:54:32.557Z,3364
2019-05-18T04:55:33.396Z,3364
2019-05-18T04:56:34.185Z,3364
2019-05-18T04:57:34.991Z,3364
2019-05-18T04:58:35.744Z,3364
2019-05-18T04:59:36.471Z,3344
2019-05-18T05:00:37.344Z,3344
2019-05-18T05:01:38.290Z,3344
2019-05-18T05:02:39.159Z,3344
2019-05-18T05:03:39.922Z,3344
2019-05-18T05:04:40.674Z,3344
2019-05-18T05:05:41.567Z,3344
2019-05-18T05:06:42.359Z,3344
2019-05-18T05:07:43.176Z,3344
2019-05-18T05:08:43.963Z,3344
2019-05-18T05:09:44.727Z,3344
2019-05-18T05:10:45.546Z,3344
2019-05-18T05:11:46.369Z,3344
2019-05-18T05:12:47.172Z,3344
2019-05-18T05:13:47.912Z,3344
2019-05-18T05:14:48.700Z,3344
2019-05-18T05:15:49.531Z,3344
2019-05-18T05:16:50.344Z,3344
2019-05-18T05:17:51.152Z,3344
2019-05-18T05:18:51.916Z,3344
2019-05-18T05:19:52.691Z,3344
2019-05-18T05:20:53.471Z,3344
2019-05-18T05:21:54.284Z,3344
2019-05-18T05:22:55.103Z,3324
2019-05-18T05:23:55.855Z,3324
2019-05-18T05:24:56.595Z,3324
2019-05-18T05:25:57.375Z,3324
2019-05-18T05:26:58.204Z,3324
2019-05-18T05:27:59.019Z,3324
2019-05-18T05:28:59.779Z,3324
2019-05-18T05:30:00.533Z,3324
2019-05-18T05:31:01.299Z,3324
2019-05-18T05:32:02.110Z,3324
2019-05-18T05:33:02.899Z,3324
2019-05-18T05:34:03.672Z,3324
2019-05-18T05:35:04.493Z,3324
2019-05-18T05:36:05.490Z,3324
2019-05-18T05:37:06.410Z,3324
2019-05-18T05:38:07.150Z,3324
2019-05-18T05:39:07.855Z,3324
2019-05-18T05:40:08.569Z,3324
2019-05-18T05:41:09.341Z,3324
2019-05-18T05:42:16.437Z,3324
2019-05-18T05:43:17.214Z,3324
2019-05-18T05:44:17.980Z,3324
2019-05-18T05:45:18.783Z,3324
2019-05-18T05:46:19.527Z,3324
2019-05-18T05:47:20.343Z,3324
2019-05-18T05:48:21.098Z,3304
2019-05-18T05:49:21.835Z,3304
2019-05-18T05:50:34.428Z,3304
2019-05-18T05:51:37.399Z,3304
2019-05-18T05:52:38.190Z,3304
2019-05-18T05:53:38.925Z,3304
2019-05-18T05:54:39.661Z,3304
2019-05-18T05:55:40.355Z,3304
2019-05-18T05:56:41.101Z,3304
2019-05-18T05:57:41.860Z,3304
2019-05-18T05:58:42.592Z,3304
2019-05-18T05:59:43.424Z,3304
2019-05-18T06:00:44.228Z,3304
2019-05-18T06:01:45.011Z,3304
2019-05-18T06:02:45.784Z,3304
2019-05-18T06:03:46.511Z,3304
2019-05-18T06:04:47.249Z,3304
2019-05-18T06:05:47.958Z,3304
2019-05-18T06:06:48.711Z,3304
2019-05-18T06:07:49.519Z,3304
2019-05-18T06:08:50.249Z,3304
2019-05-18T06:09:50.981Z,3304
2019-05-18T06:10:51.759Z,3284
2019-05-18T06:11:52.543Z,3284
2019-05-18T06:12:53.330Z,3284
2019-05-18T06:13:54.080Z,3284
2019-05-18T06:14:54.819Z,3284
2019-05-18T06:15:55.616Z,3284
2019-05-18T06:16:56.389Z,3284
2019-05-18T06:17:57.285Z,3284
2019-05-18T06:18:58.040Z,3284
2019-05-18T06:19:58.842Z,3284
2019-05-18T06:20:59.567Z,3284
2019-05-18T06:22:00.283Z,3284
2019-05-18T06:23:01.035Z,3284
2019-05-18T06:24:01.803Z,3284
2019-05-18T06:25:04.762Z,3284
2019-05-18T06:26:06.367Z,3284
2019-05-18T06:27:07.110Z,3284
2019-05-18T06:28:07.920Z,3284
2019-05-18T06:29:08.658Z,3284
2019-05-18T06:30:09.401Z,3284
2019-05-18T06:31:10.196Z,3284
2019-05-18T06:32:10.952Z,3264
2019-05-18T06:33:11.753Z,3264
2019-05-18T06:34:12.485Z,3264
2019-05-18T06:35:13.263Z,3264
2019-05-18T06:36:14.071Z,3264
2019-05-18T06:37:14.834Z,3264
2019-05-18T06:38:15.642Z,3264
2019-05-18T06:39:16.342Z,3264
2019-05-18T06:40:17.087Z,3264
2019-05-18T06:41:17.939Z,3264
2019-05-18T06:42:18.684Z,3264
2019-05-18T06:43:19.469Z,3264
2019-05-18T06:44:20.207Z,3264
2019-05-18T06:45:21.011Z,3264
2019-05-18T06:46:21.768Z,3264
2019-05-18T06:47:22.511Z,3264
2019-05-18T06:48:23.304Z,3264
2019-05-18T06:49:24.052Z,3244
2019-05-18T06:50:24.779Z,3264
2019-05-18T06:51:25.569Z,3244
2019-05-18T06:52:26.310Z,3244
2019-05-18T06:53:27.166Z,3244
2019-05-18T06:54:27.870Z,3244
2019-05-18T06:55:28.566Z,3244
2019-05-18T06:56:29.331Z,3244
2019-05-18T06:57:30.088Z,3244
2019-05-18T06:58:30.943Z,3244
2019-05-18T06:59:31.692Z,3244
2019-05-18T07:00:32.528Z,3244
2019-05-18T07:01:33.274Z,3244
2019-05-18T07:02:34.003Z,3244
2019-05-18T07:03:34.814Z,3244
2019-05-18T07:04:35.772Z,3244
2019-05-18T07:05:36.520Z,3244
2019-05-18T07:06:37.277Z,3244
2019-05-18T07:07:37.982Z,3244
2019-05-18T07:08:38.787Z,3224
2019-05-18T07:09:39.497Z,3224
2019-05-18T07:10:40.207Z,3224
2019-05-18T07:11:40.960Z,3224
2019-05-18T07:12:41.688Z,3224
2019-05-18T07:13:42.510Z,3224
2019-05-18T07:14:43.248Z,3224
2019-05-18T07:15:43.987Z,3224
2019-05-18T07:16:44.873Z,3224
2019-05-18T07:17:45.693Z,3224
2019-05-18T07:18:46.469Z,3224
2019-05-18T07:19:47.235Z,3224
2019-05-18T07:20:47.988Z,3224
2019-05-18T07:21:48.781Z,3224
2019-05-18T07:22:49.558Z,3224
2019-05-18T07:23:50.317Z,3224
2019-05-18T07:24:51.036Z,3224
2019-05-18T07:25:51.750Z,3204
2019-05-18T07:26:52.498Z,3204
2019-05-18T07:27:53.302Z,3204
2019-05-18T07:28:54.118Z,3204
2019-05-18T07:29:54.901Z,3204
2019-05-18T07:30:55.696Z,3204
2019-05-18T07:31:56.463Z,3204
2019-05-18T07:32:57.238Z,3204
2019-05-18T07:33:57.994Z,3204
2019-05-18T07:34:58.719Z,3204
2019-05-18T07:35:59.585Z,3204
2019-05-18T07:37:00.335Z,3204
2019-05-18T07:38:01.081Z,3204
2019-05-18T07:39:01.875Z,3204
2019-05-18T07:40:02.675Z,3204
2019-05-18T07:41:03.458Z,3184
2019-05-18T07:42:04.232Z,3184
2019-05-18T07:43:04.962Z,3184
2019-05-18T07:44:05.727Z,3184
2019-05-18T07:45:06.502Z,3184
2019-05-18T07:46:08.796Z,3184
2019-05-18T07:47:09.683Z,3184
2019-05-18T07:48:10.410Z,3184
2019-05-18T07:49:11.169Z,3184
2019-05-18T07:50:11.927Z,3184
2019-05-18T07:51:12.687Z,3184
2019-05-18T07:52:13.427Z,3184
2019-05-18T07:53:14.162Z,3184
2019-05-18T07:54:14.859Z,3164
2019-05-18T07:55:15.567Z,3164
2019-05-18T07:56:16.324Z,3164
2019-05-18T07:57:17.097Z,3164
2019-05-18T07:58:17.846Z,3164
2019-05-18T07:59:19.905Z,3164
2019-05-18T08:00:20.846Z,3164
2019-05-18T08:01:21.601Z,3164
2019-05-18T08:02:22.353Z,3164
2019-05-18T08:03:23.136Z,3164
2019-05-18T08:04:23.882Z,3164
2019-05-18T08:05:24.647Z,3164
2019-05-18T08:06:25.463Z,3164
2019-05-18T08:07:26.192Z,3144
2019-05-18T08:08:26.943Z,3144
2019-05-18T08:09:27.722Z,3144
2019-05-18T08:10:28.429Z,3144
2019-05-18T08:11:29.269Z,3144
2019-05-18T08:12:30.065Z,3144
2019-05-18T08:13:30.765Z,3144
2019-05-18T08:14:31.487Z,3144
2019-05-18T08:15:32.233Z,3144
2019-05-18T08:16:33.022Z,3144
2019-05-18T08:17:33.801Z,3144
2019-05-18T08:18:34.521Z,3144
2019-05-18T08:19:35.275Z,3124
2019-05-18T08:20:36.047Z,3124
2019-05-18T08:21:50.802Z,3124
2019-05-18T08:22:54.666Z,3124
2019-05-18T08:23:56.750Z,3124
2019-05-18T08:24:57.485Z,3124
2019-05-18T08:25:58.369Z,3124
2019-05-18T08:27:01.894Z,3124
2019-05-18T08:28:03.219Z,3124
2019-05-18T08:29:03.960Z,3124
2019-05-18T08:30:04.708Z,3124
2019-05-18T08:31:05.457Z,3124
2019-05-18T08:32:06.281Z,3104
2019-05-18T08:33:07.066Z,3104
2019-05-18T08:34:07.792Z,3104
2019-05-18T08:35:08.619Z,3104
2019-05-18T08:36:09.491Z,3104
2019-05-18T08:37:10.346Z,3104
2019-05-18T08:38:11.176Z,3104
2019-05-18T08:39:12.107Z,3104
2019-05-18T08:40:13.261Z,3104
2019-05-18T08:41:14.238Z,3104
2019-05-18T08:42:15.210Z,3104
2019-05-18T08:43:16.005Z,3104
2019-05-18T08:44:16.714Z,3084
2019-05-18T08:45:17.496Z,3084
2019-05-18T08:46:18.256Z,3084
2019-05-18T08:47:19.018Z,3084
2019-05-18T08:48:19.771Z,3084
2019-05-18T08:49:20.588Z,3084
2019-05-18T08:50:21.319Z,3084
2019-05-18T08:51:22.132Z,3084
2019-05-18T08:52:22.987Z,3084
2019-05-18T08:53:23.789Z,3084
2019-05-18T08:54:24.554Z,3084
2019-05-18T08:55:25.297Z,3084
2019-05-18T08:56:26.076Z,3084
2019-05-18T08:57:26.926Z,3084
2019-05-18T08:58:27.757Z,3064
2019-05-18T08:59:28.514Z,3064
2019-05-18T09:00:29.263Z,3064
2019-05-18T09:01:30.238Z,3064
2019-05-18T09:02:31.256Z,3064
2019-05-18T09:03:32.071Z,3064
2019-05-18T09:04:32.854Z,3064
2019-05-18T09:05:33.853Z,3064
2019-05-18T09:06:55.019Z,3664
2019-05-18T09:07:55.822Z,3704
2019-05-18T09:08:56.526Z,3744
2019-05-18T09:09:57.238Z,3764
2019-05-18T09:10:57.941Z,3804
2019-05-18T09:11:58.680Z,3824
2019-05-18T09:12:59.510Z,3844
2019-05-18T09:14:00.344Z,3844
2019-05-18T09:15:01.169Z,3864
2019-05-18T09:16:01.977Z,3864
2019-05-18T09:17:02.737Z,3864
2019-05-18T09:18:04.934Z,3884
2019-05-18T09:19:05.867Z,3884
2019-05-18T09:20:06.682Z,3884
2019-05-18T09:21:07.438Z,3884
2019-05-18T09:22:21.240Z,3904
2019-05-18T09:23:24.264Z,3904
2019-05-18T09:24:25.013Z,3904
2019-05-18T09:25:25.838Z,3924
2019-05-18T09:26:26.571Z,3924
2019-05-18T09:27:27.316Z,3924
2019-05-18T09:28:28.230Z,3924
2019-05-18T09:29:28.959Z,3944
2019-05-18T09:30:29.778Z,3944
2019-05-18T09:31:30.535Z,3944
2019-05-18T09:32:31.278Z,3944
2019-05-18T09:33:32.101Z,3964
2019-05-18T09:34:32.862Z,3964
2019-05-18T09:35:33.701Z,3964
2019-05-18T09:36:34.481Z,3984
2019-05-18T09:37:35.220Z,3984
2019-05-18T09:38:35.992Z,3984
2019-05-18T09:39:36.795Z,3984
2019-05-18T09:40:37.612Z,4004
2019-05-18T09:41:38.337Z,4004
2019-05-18T09:42:39.068Z,4004
2019-05-18T09:43:39.846Z,4004
2019-05-18T09:44:40.566Z,4024
2019-05-18T09:45:41.411Z,4024
2019-05-18T09:46:42.157Z,4024
2019-05-18T09:47:42.895Z,4024
2019-05-18T09:48:43.660Z,4024
2019-05-18T09:49:44.411Z,4044
2019-05-18T09:50:45.258Z,4044
2019-05-18T09:51:46.016Z,4044
2019-05-18T09:52:46.814Z,4044
2019-05-18T09:53:51.370Z,4044
2019-05-18T09:54:52.793Z,4064
2019-05-18T09:55:53.610Z,4064
2019-05-18T09:56:54.344Z,4064
2019-05-18T09:57:55.071Z,4064
2019-05-18T09:58:55.899Z,4064
2019-05-18T09:59:56.699Z,4084
2019-05-18T10:00:57.487Z,4084
2019-05-18T10:01:58.250Z,4084
2019-05-18T10:02:58.994Z,4084
2019-05-18T10:03:59.792Z,4084
2019-05-18T10:05:00.538Z,4104
2019-05-18T10:06:01.330Z,4104
2019-05-18T10:07:02.182Z,4104
2019-05-18T10:08:03.000Z,4104
2019-05-18T10:09:03.827Z,4104
2019-05-18T10:10:04.567Z,4124
2019-05-18T10:11:05.305Z,4124
2019-05-18T10:12:06.049Z,4124
2019-05-18T10:13:06.798Z,4124
2019-05-18T10:14:07.644Z,4124
2019-05-18T10:15:08.382Z,4144
2019-05-18T10:16:09.161Z,4144
2019-05-18T10:17:09.884Z,4144
2019-05-18T10:18:10.717Z,4144
2019-05-18T10:19:11.516Z,4164
2019-05-18T10:20:12.226Z,4164
2019-05-18T10:21:13.022Z,4164
2019-05-18T10:22:13.810Z,4164
2019-05-18T10:23:14.624Z,4164
2019-05-18T10:24:15.464Z,4184
2019-05-18T10:25:16.272Z,4184
2019-05-18T10:26:17.073Z,4184
2019-05-18T10:27:17.809Z,4184
2019-05-18T10:28:18.576Z,4204
2019-05-18T10:29:19.395Z,4204
2019-05-18T10:30:20.110Z,4204
2019-05-18T10:31:20.891Z,4204
2019-05-18T10:32:21.628Z,4204
2019-05-18T10:33:22.370Z,4224
2019-05-18T10:34:23.131Z,4224
2019-05-18T10:35:23.898Z,4224
2019-05-18T10:36:24.702Z,4224
2019-05-18T10:37:25.443Z,4224
2019-05-18T10:38:26.194Z,4224
2019-05-18T10:39:26.958Z,4224
2019-05-18T10:40:27.692Z,4244
2019-05-18T10:41:28.483Z,4244
2019-05-18T10:42:29.256Z,4244
2019-05-18T10:43:30.090Z,4244
2019-05-18T10:44:30.961Z,4244
2019-05-18T10:45:31.715Z,4244
2019-05-18T10:46:32.509Z,4244
2019-05-18T10:47:33.237Z,4244
2019-05-18T10:48:34.004Z,4244
2019-05-18T10:49:34.776Z,4244
2019-05-18T10:50:35.558Z,4244
2019-05-18T10:51:36.386Z,4244
2019-05-18T10:52:37.149Z,4244
2019-05-18T10:53:37.895Z,4244
2019-05-18T10:54:38.646Z,4244
2019-05-18T10:55:39.392Z,4244
2019-05-18T10:56:40.194Z,4244
2019-05-18T10:57:41.039Z,4244
2019-05-18T10:58:41.785Z,4244
2019-05-18T10:59:42.575Z,4244
2019-05-18T11:00:43.469Z,4244
2019-05-18T11:01:44.298Z,4244
2019-05-18T11:02:45.111Z,4244
2019-05-18T11:03:45.843Z,4244
2019-05-18T11:04:46.614Z,4244
2019-05-18T11:05:47.363Z,4244
2019-05-18T11:06:48.144Z,4244
2019-05-18T11:07:48.931Z,4244
2019-05-18T11:08:49.636Z,4244
2019-05-18T11:09:50.363Z,4224
2019-05-18T11:10:51.153Z,4224
2019-05-18T11:11:52.012Z,4224
2019-05-18T11:12:52.871Z,4224
2019-05-18T11:13:53.647Z,4224
2019-05-18T11:14:54.376Z,4224
2019-05-18T11:15:55.128Z,4224
2019-05-18T11:16:55.928Z,4224
2019-05-18T11:17:56.754Z,4224
2019-05-18T11:18:57.564Z,4224
2019-05-18T11:19:58.336Z,4224
2019-05-18T11:20:59.091Z,4224
2019-05-18T11:21:59.850Z,4224
2019-05-18T11:23:00.642Z,4224
2019-05-18T11:24:01.453Z,4224
2019-05-18T11:25:02.210Z,4224
2019-05-18T11:26:02.936Z,4224
2019-05-18T11:27:03.699Z,4224
2019-05-18T11:28:04.547Z,4224
2019-05-18T11:29:05.271Z,4224
2019-05-18T11:30:06.201Z,4224
2019-05-18T11:31:07.174Z,4224
2019-05-18T11:32:07.965Z,4224
2019-05-18T11:33:08.778Z,4224
2019-05-18T11:34:09.558Z,4224
2019-05-18T11:35:10.306Z,4224
2019-05-18T11:36:11.175Z,4224
2019-05-18T11:37:11.988Z,4224
2019-05-18T11:38:12.797Z,4224
2019-05-18T11:39:13.572Z,4224
2019-05-18T11:40:14.339Z,4224
2019-05-18T11:41:15.074Z,4224
2019-05-18T11:42:15.835Z,4224
2019-05-18T11:43:16.682Z,4224
2019-05-18T11:44:17.442Z,4224
2019-05-18T11:45:18.275Z,4224
2019-05-18T11:46:19.020Z,4224
2019-05-18T11:47:19.789Z,4224
2019-05-18T11:48:20.545Z,4224
2019-05-18T11:49:21.327Z,4224
2019-05-18T11:50:22.077Z,4224
2019-05-18T11:51:22.818Z,4224
2019-05-18T11:52:23.608Z,4224
2019-05-18T11:53:24.419Z,4224
2019-05-18T11:54:25.198Z,4224
2019-05-18T11:55:25.952Z,4224
2019-05-18T11:56:26.744Z,4224
2019-05-18T11:57:27.566Z,4224
2019-05-18T11:58:28.464Z,4224
2019-05-18T11:59:29.239Z,4224
2019-05-18T12:00:30.041Z,4224
2019-05-18T12:01:30.781Z,4224
2019-05-18T12:02:31.611Z,4224
2019-05-18T12:03:32.429Z,4224
2019-05-18T12:04:33.159Z,4224
2019-05-18T12:05:33.926Z,4224
2019-05-18T12:06:34.666Z,4224
2019-05-18T12:07:35.496Z,4224
2019-05-18T12:08:36.325Z,4224
2019-05-18T12:09:37.106Z,4224
2019-05-18T12:10:37.996Z,4224
2019-05-18T12:11:38.779Z,4224
2019-05-18T12:12:39.675Z,4224
2019-05-18T12:13:40.608Z,4204
2019-05-18T12:14:41.333Z,4204
2019-05-18T12:15:42.114Z,4204
2019-05-18T12:16:42.891Z,4204
2019-05-18T12:17:43.672Z,4204
2019-05-18T12:18:44.494Z,4204
2019-05-18T12:19:45.257Z,4204
2019-05-18T12:20:45.988Z,4204
2019-05-18T12:21:46.754Z,4204
2019-05-18T12:22:47.579Z,4204
2019-05-18T12:23:48.416Z,4204
2019-05-18T12:24:49.159Z,4204
2019-05-18T12:25:50.792Z,4204
2019-05-18T12:26:51.681Z,4204
2019-05-18T12:27:52.497Z,4204
2019-05-18T12:28:53.388Z,4204
2019-05-18T12:29:54.112Z,4204
2019-05-18T12:30:54.884Z,4204
2019-05-18T12:31:55.629Z,4204
2019-05-18T12:32:56.501Z,4204
2019-05-18T12:33:57.273Z,4204
2019-05-18T12:34:58.001Z,4204
2019-05-18T12:35:58.743Z,4204
2019-05-18T12:36:59.464Z,4204
2019-05-18T12:38:00.382Z,4204
2019-05-18T12:39:01.137Z,4204
2019-05-18T12:40:01.910Z,4204
2019-05-18T12:41:03.069Z,4204
2019-05-18T12:42:03.874Z,4204
2019-05-18T12:43:08.145Z,4204
2019-05-18T12:44:08.896Z,4204
2019-05-18T12:45:09.630Z,4204
2019-05-18T12:46:10.397Z,4204
2019-05-18T12:47:14.240Z,4204
2019-05-18T12:48:15.418Z,4204
2019-05-18T12:49:16.251Z,4204
2019-05-18T12:50:17.006Z,4204
2019-05-18T12:51:17.740Z,4204
2019-05-18T12:52:18.497Z,4204
2019-05-18T12:53:19.402Z,4204
2019-05-18T12:54:29.006Z,4204
2019-05-18T12:55:47.585Z,4204
2019-05-18T12:56:48.340Z,4204
2019-05-18T12:57:49.079Z,4204
2019-05-18T12:58:49.946Z,4204
2019-05-18T12:59:50.776Z,4204
2019-05-18T13:00:51.498Z,4204
2019-05-18T13:01:52.349Z,4204
2019-05-18T13:02:53.078Z,4204
2019-05-18T13:03:53.908Z,4204
2019-05-18T13:04:54.709Z,4204
2019-05-18T13:05:55.499Z,4204
2019-05-18T13:06:56.253Z,4204
2019-05-18T13:07:56.972Z,4204
2019-05-18T13:08:57.800Z,4204
2019-05-18T13:09:58.619Z,4204
2019-05-18T13:10:59.405Z,4204
2019-05-18T13:12:00.139Z,4204
2019-05-18T13:13:00.924Z,4204
2019-05-18T13:14:01.795Z,4204
2019-05-18T13:15:02.764Z,4204
2019-05-18T13:16:03.697Z,4204
2019-05-18T13:17:04.548Z,4204
2019-05-18T13:18:05.299Z,4204
2019-05-18T13:19:06.102Z,4204
2019-05-18T13:20:06.911Z,4204
2019-05-18T13:21:07.635Z,4204
2019-05-18T13:22:08.371Z,4204
2019-05-18T13:23:09.225Z,4204
2019-05-18T13:24:10.022Z,4204
2019-05-18T13:25:10.814Z,4204
2019-05-18T13:26:11.582Z,4204
2019-05-18T13:27:12.347Z,4204
2019-05-18T13:28:13.097Z,4204
2019-05-18T13:29:13.957Z,4204
2019-05-18T13:30:14.744Z,4204
2019-05-18T13:31:15.477Z,4204